createdAt,value
2022-08-14T00:00:23.537Z,75.97
2022-08-14T00:01:24.081Z,76.06
2022-08-14T00:02:24.449Z,76.06
2022-08-14T00:03:29.490Z,75.58
2022-08-14T00:04:34.371Z,75.78
2022-08-14T00:05:23.565Z,75.20
2022-08-14T00:06:28.484Z,75.29
2022-08-14T00:07:23.580Z,75.58
2022-08-14T00:08:44.798Z,75.20
2022-08-14T00:09:23.588Z,75.00
2022-08-14T00:10:52.869Z,75.58
2022-08-14T00:11:23.594Z,75.48
2022-08-14T00:12:24.730Z,75.58
2022-08-14T00:13:23.608Z,75.68
2022-08-14T00:14:23.627Z,75.68
2022-08-14T00:15:23.599Z,75.48
2022-08-14T00:16:40.864Z,75.78
2022-08-14T00:17:23.651Z,75.87
2022-08-14T00:18:30.855Z,75.68
2022-08-14T00:19:23.624Z,75.39
2022-08-14T00:20:30.957Z,75.78
2022-08-14T00:21:28.249Z,75.48
2022-08-14T00:22:56.800Z,75.68
2022-08-14T00:23:23.625Z,75.00
2022-08-14T00:24:29.091Z,74.62
2022-08-14T00:25:23.632Z,74.81
2022-08-14T00:26:23.636Z,75.20
2022-08-14T00:27:23.635Z,75.48
2022-08-14T00:28:23.646Z,74.81
2022-08-14T00:29:25.250Z,74.81
2022-08-14T00:30:23.652Z,74.71
2022-08-14T00:31:35.135Z,74.81
2022-08-14T00:32:51.049Z,74.81
2022-08-14T00:33:23.658Z,75.10
2022-08-14T00:34:36.275Z,75.39
2022-08-14T00:36:34.027Z,75.20
2022-08-14T00:36:35.888Z,75.48
2022-08-14T00:37:23.688Z,75.58
2022-08-14T00:38:23.693Z,75.58
2022-08-14T00:39:23.760Z,75.48
2022-08-14T00:40:32.881Z,75.58
2022-08-14T00:41:23.712Z,75.20
2022-08-14T00:43:02.950Z,75.00
2022-08-14T00:43:23.719Z,75.48
2022-08-14T00:44:31.850Z,75.29
2022-08-14T00:45:23.719Z,75.20
2022-08-14T00:46:32.131Z,75.29
2022-08-14T00:47:23.744Z,75.29
2022-08-14T00:48:34.424Z,75.29
2022-08-14T00:49:23.729Z,75.20
2022-08-14T00:50:23.718Z,75.48
2022-08-14T00:51:23.769Z,75.93
2022-08-14T00:52:23.735Z,75.68
2022-08-14T00:53:23.738Z,75.87
2022-08-14T00:54:23.734Z,75.97
2022-08-14T00:55:23.742Z,75.39
2022-08-14T00:56:23.774Z,75.39
2022-08-14T00:57:23.742Z,75.93
2022-08-14T00:58:27.834Z,75.97
2022-08-14T00:59:23.754Z,75.74
2022-08-14T01:00:37.432Z,75.64
2022-08-14T01:01:23.861Z,76.22
2022-08-14T01:02:23.770Z,76.12
2022-08-14T01:03:23.777Z,76.03
2022-08-14T01:04:38.281Z,76.42
2022-08-14T01:05:23.790Z,76.42
2022-08-14T01:06:23.785Z,76.70
2022-08-14T01:07:23.775Z,76.61
2022-08-14T01:08:58.210Z,77.19
2022-08-14T01:09:23.798Z,76.90
2022-08-14T01:10:23.798Z,76.80
2022-08-14T01:11:23.813Z,76.61
2022-08-14T01:12:27.193Z,76.80
2022-08-14T01:13:23.809Z,76.51
2022-08-14T01:14:28.169Z,76.51
2022-08-14T01:15:31.747Z,76.42
2022-08-14T01:16:27.917Z,76.80
2022-08-14T01:17:23.826Z,77.09
2022-08-14T01:18:23.837Z,76.90
2022-08-14T01:19:23.847Z,76.90
2022-08-14T01:20:27.218Z,76.90
2022-08-14T01:21:23.838Z,77.00
2022-08-14T01:22:26.897Z,77.38
2022-08-14T01:23:23.851Z,77.09
2022-08-14T01:24:30.973Z,77.19
2022-08-14T01:25:23.844Z,77.28
2022-08-14T01:26:35.789Z,77.38
2022-08-14T01:27:24.275Z,77.38
2022-08-14T01:28:47.231Z,77.28
2022-08-14T01:29:42.109Z,77.00
2022-08-14T01:30:23.865Z,76.51
2022-08-14T01:31:23.869Z,76.51
2022-08-14T01:32:23.880Z,76.32
2022-08-14T01:33:23.890Z,76.80
2022-08-14T01:35:20.850Z,76.61
2022-08-14T01:36:03.588Z,76.61
2022-08-14T01:36:23.924Z,76.51
2022-08-14T01:37:23.898Z,76.61
2022-08-14T01:38:23.887Z,76.42
2022-08-14T01:39:23.966Z,76.51
2022-08-14T01:40:25.631Z,76.51
2022-08-14T01:41:29.887Z,76.51
2022-08-14T01:42:31.946Z,77.00
2022-08-14T01:43:26.578Z,77.00
2022-08-14T01:44:31.344Z,77.00
2022-08-14T01:45:25.584Z,77.00
2022-08-14T01:46:24.781Z,77.38
2022-08-14T01:47:23.923Z,77.38
2022-08-14T01:48:23.947Z,77.38
2022-08-14T01:49:23.929Z,77.19
2022-08-14T01:50:26.654Z,77.48
2022-08-14T01:51:23.927Z,77.76
2022-08-14T01:52:58.066Z,77.67
2022-08-14T01:53:23.936Z,77.86
2022-08-14T01:54:23.946Z,77.86
2022-08-14T01:55:23.947Z,78.15
2022-08-14T01:56:23.951Z,78.15
2022-08-14T01:57:23.961Z,78.15
2022-08-14T01:58:28.958Z,77.96
2022-08-14T01:59:23.985Z,77.96
2022-08-14T02:00:23.965Z,77.96
2022-08-14T02:01:26.450Z,77.48
2022-08-14T02:02:23.981Z,77.76
2022-08-14T02:03:23.969Z,77.76
2022-08-14T02:04:54.651Z,77.57
2022-08-14T02:05:23.987Z,78.06
2022-08-14T02:06:33.454Z,78.06
2022-08-14T02:07:27.244Z,78.06
2022-08-14T02:08:35.283Z,78.34
2022-08-14T02:09:23.992Z,78.64
2022-08-14T02:10:27.152Z,78.73
2022-08-14T02:11:24.206Z,78.54
2022-08-14T02:12:26.553Z,78.83
2022-08-14T02:13:24.013Z,78.64
2022-08-14T02:14:31.398Z,78.83
2022-08-14T02:15:24.050Z,79.31
2022-08-14T02:16:24.020Z,79.50
2022-08-14T02:17:24.080Z,79.41
2022-08-14T02:18:24.028Z,79.41
2022-08-14T02:19:24.020Z,79.60
2022-08-14T02:20:24.103Z,79.31
2022-08-14T02:21:24.033Z,79.41
2022-08-14T02:22:32.365Z,79.22
2022-08-14T02:23:30.517Z,79.41
2022-08-14T02:24:39.495Z,79.41
2022-08-14T02:25:24.041Z,80.08
2022-08-14T02:26:29.583Z,80.08
2022-08-14T02:28:25.301Z,79.85
2022-08-14T02:28:57.317Z,79.99
2022-08-14T02:29:24.071Z,80.62
2022-08-14T02:30:24.100Z,80.76
2022-08-14T02:31:28.646Z,80.47
2022-08-14T02:32:30.597Z,80.57
2022-08-14T02:33:24.096Z,80.53
2022-08-14T02:34:27.552Z,80.57
2022-08-14T02:35:26.556Z,80.57
2022-08-14T02:37:04.109Z,81.05
2022-08-14T02:37:24.097Z,81.05
2022-08-14T02:38:30.299Z,81.44
2022-08-14T02:39:24.118Z,80.38
2022-08-14T02:40:32.284Z,80.76
2022-08-14T02:41:27.317Z,80.86
2022-08-14T02:42:47.282Z,81.05
2022-08-14T02:43:24.109Z,80.57
2022-08-14T02:44:29.779Z,80.66
2022-08-14T02:45:24.112Z,80.47
2022-08-14T02:46:26.969Z,80.66
2022-08-14T02:47:24.117Z,80.28
2022-08-14T02:49:05.285Z,80.28
2022-08-14T02:49:25.342Z,79.89
2022-08-14T02:50:26.995Z,79.89
2022-08-14T02:51:24.140Z,79.99
2022-08-14T02:52:56.190Z,79.89
2022-08-14T02:53:24.137Z,79.89
2022-08-14T02:54:24.141Z,80.38
2022-08-14T02:55:24.155Z,80.86
2022-08-14T02:56:30.582Z,80.76
2022-08-14T02:57:39.219Z,80.47
2022-08-14T02:58:30.326Z,80.47
2022-08-14T02:59:24.151Z,80.57
2022-08-14T03:00:24.161Z,80.62
2022-08-14T03:01:24.284Z,80.38
2022-08-14T03:02:48.574Z,80.86
2022-08-14T03:03:24.173Z,80.28
2022-08-14T03:04:25.224Z,80.47
2022-08-14T03:05:24.185Z,80.57
2022-08-14T03:06:35.172Z,80.76
2022-08-14T03:07:24.211Z,79.99
2022-08-14T03:08:24.195Z,80.08
2022-08-14T03:09:24.185Z,80.38
2022-08-14T03:10:28.260Z,80.18
2022-08-14T03:11:24.194Z,80.28
2022-08-14T03:12:31.825Z,79.99
2022-08-14T03:13:24.207Z,79.89
2022-08-14T03:14:25.091Z,80.38
2022-08-14T03:15:24.209Z,80.28
2022-08-14T03:16:26.928Z,80.57
2022-08-14T03:17:24.221Z,80.66
2022-08-14T03:18:31.679Z,80.76
2022-08-14T03:19:24.273Z,80.57
2022-08-14T03:20:24.233Z,80.66
2022-08-14T03:21:24.229Z,80.66
2022-08-14T03:22:24.255Z,80.57
2022-08-14T03:23:24.233Z,81.05
2022-08-14T03:24:24.235Z,81.15
2022-08-14T03:25:24.253Z,81.15
2022-08-14T03:26:30.256Z,81.24
2022-08-14T03:27:26.493Z,81.34
2022-08-14T03:28:32.919Z,81.24
2022-08-14T03:29:24.567Z,81.24
2022-08-14T03:30:24.250Z,81.34
2022-08-14T03:31:27.865Z,81.73
2022-08-14T03:32:30.289Z,81.44
2022-08-14T03:33:24.274Z,81.63
2022-08-14T03:34:52.636Z,82.11
2022-08-14T03:35:24.280Z,81.34
2022-08-14T03:37:37.888Z,82.21
2022-08-14T03:37:39.445Z,81.82
2022-08-14T03:39:12.781Z,82.40
2022-08-14T03:39:24.483Z,81.73
2022-08-14T03:40:24.352Z,82.50
2022-08-14T03:41:24.313Z,82.40
2022-08-14T03:42:24.307Z,82.21
2022-08-14T03:43:24.351Z,82.11
2022-08-14T03:45:26.383Z,82.11
2022-08-14T03:45:33.645Z,82.21
2022-08-14T03:46:51.885Z,82.40
2022-08-14T03:47:24.314Z,82.40
2022-08-14T03:48:30.295Z,82.21
2022-08-14T03:49:28.518Z,82.11
2022-08-14T03:50:27.927Z,81.63
2022-08-14T03:51:24.326Z,82.21
2022-08-14T03:52:40.585Z,82.02
2022-08-14T03:53:24.356Z,82.02
2022-08-14T03:54:24.329Z,81.82
2022-08-14T03:55:24.336Z,82.40
2022-08-14T03:56:24.343Z,82.21
2022-08-14T03:57:24.347Z,83.08
2022-08-14T03:58:36.194Z,83.75
2022-08-14T03:59:24.346Z,83.85
2022-08-14T04:00:40.377Z,83.56
2022-08-14T04:01:24.419Z,83.66
2022-08-14T04:02:32.923Z,83.23
2022-08-14T04:03:24.512Z,83.62
2022-08-14T04:04:24.373Z,83.42
2022-08-14T04:05:24.363Z,83.52
2022-08-14T04:06:28.302Z,83.14
2022-08-14T04:07:24.405Z,83.14
2022-08-14T04:08:30.640Z,82.75
2022-08-14T04:09:24.389Z,82.79
2022-08-14T04:10:26.422Z,82.94
2022-08-14T04:11:24.379Z,82.26
2022-08-14T04:12:26.654Z,82.84
2022-08-14T04:13:24.393Z,82.56
2022-08-14T04:14:24.394Z,83.37
2022-08-14T04:15:24.399Z,83.52
2022-08-14T04:16:24.403Z,83.42
2022-08-14T04:17:24.411Z,83.23
2022-08-14T04:18:24.419Z,83.23
2022-08-14T04:19:24.746Z,83.42
2022-08-14T04:20:25.694Z,83.52
2022-08-14T04:21:24.416Z,83.33
2022-08-14T04:22:24.421Z,83.33
2022-08-14T04:23:29.699Z,83.81
2022-08-14T04:24:25.892Z,82.94
2022-08-14T04:25:24.434Z,83.62
2022-08-14T04:26:27.127Z,84.10
2022-08-14T04:27:24.437Z,83.91
2022-08-14T04:29:02.128Z,83.52
2022-08-14T04:29:24.440Z,83.23
2022-08-14T04:30:24.886Z,83.62
2022-08-14T04:32:56.288Z,83.52
2022-08-14T04:33:00.015Z,83.72
2022-08-14T04:33:24.757Z,83.72
2022-08-14T04:34:27.882Z,83.23
2022-08-14T04:35:24.463Z,83.95
2022-08-14T04:36:24.468Z,83.42
2022-08-14T04:37:25.256Z,83.62
2022-08-14T04:38:37.012Z,83.14
2022-08-14T04:39:24.490Z,83.33
2022-08-14T04:40:24.582Z,83.14
2022-08-14T04:41:24.476Z,83.62
2022-08-14T04:42:24.490Z,82.69
2022-08-14T04:43:24.540Z,82.50
2022-08-14T04:44:36.212Z,83.18
2022-08-14T04:45:24.506Z,83.52
2022-08-14T04:46:56.548Z,83.27
2022-08-14T04:47:24.502Z,83.33
2022-08-14T04:48:38.781Z,83.18
2022-08-14T04:49:24.502Z,83.27
2022-08-14T04:50:37.966Z,83.47
2022-08-14T04:51:24.510Z,83.27
2022-08-14T04:52:24.673Z,83.47
2022-08-14T04:53:26.219Z,83.47
2022-08-14T04:54:24.651Z,83.52
2022-08-14T04:55:24.528Z,83.42
2022-08-14T04:56:33.946Z,83.75
2022-08-14T04:57:24.552Z,84.30
2022-08-14T04:58:32.203Z,83.75
2022-08-14T04:59:24.548Z,84.39
2022-08-14T05:00:24.857Z,84.53
2022-08-14T05:01:24.612Z,84.53
2022-08-14T05:02:24.633Z,84.33
2022-08-14T05:03:25.254Z,84.33
2022-08-14T05:04:24.561Z,83.56
2022-08-14T05:05:24.563Z,84.33
2022-08-14T05:06:38.937Z,84.53
2022-08-14T05:07:46.850Z,84.05
2022-08-14T05:08:31.906Z,83.47
2022-08-14T05:09:24.576Z,83.56
2022-08-14T05:10:24.642Z,83.27
2022-08-14T05:11:24.582Z,83.18
2022-08-14T05:13:11.273Z,83.08
2022-08-14T05:13:30.225Z,83.37
2022-08-14T05:14:46.134Z,82.79
2022-08-14T05:15:24.632Z,82.40
2022-08-14T05:16:24.601Z,82.79
2022-08-14T05:17:24.652Z,82.69
2022-08-14T05:19:16.903Z,82.89
2022-08-14T05:19:26.790Z,82.79
2022-08-14T05:21:58.098Z,82.89
2022-08-14T05:21:59.972Z,82.60
2022-08-14T05:22:24.624Z,82.50
2022-08-14T05:23:24.627Z,82.21
2022-08-14T05:24:24.625Z,82.21
2022-08-14T05:25:24.633Z,81.73
2022-08-14T05:26:24.650Z,81.73
2022-08-14T05:27:24.646Z,81.53
2022-08-14T05:28:24.664Z,82.11
2022-08-14T05:29:24.652Z,82.31
2022-08-14T05:30:24.649Z,81.38
2022-08-14T05:31:24.778Z,81.38
2022-08-14T05:32:27.653Z,81.19
2022-08-14T05:33:24.663Z,81.57
2022-08-14T05:34:28.770Z,81.29
2022-08-14T05:35:24.673Z,81.29
2022-08-14T05:36:24.686Z,81.19
2022-08-14T05:37:24.695Z,80.61
2022-08-14T05:38:31.052Z,80.90
2022-08-14T05:39:24.724Z,80.22
2022-08-14T05:40:24.738Z,80.22
2022-08-14T05:41:51.055Z,80.22
2022-08-14T05:42:29.328Z,80.22
2022-08-14T05:43:24.737Z,80.12
2022-08-14T05:44:29.626Z,79.64
2022-08-14T05:45:24.711Z,79.35
2022-08-14T05:46:24.717Z,78.91
2022-08-14T05:47:33.765Z,78.33
2022-08-14T05:48:33.431Z,78.13
2022-08-14T05:49:32.814Z,78.13
2022-08-14T05:50:24.735Z,77.94
2022-08-14T05:51:24.742Z,78.03
2022-08-14T05:52:38.309Z,77.84
2022-08-14T05:53:24.751Z,78.23
2022-08-14T05:54:26.965Z,79.00
2022-08-14T05:55:24.770Z,79.39
2022-08-14T05:56:24.771Z,79.29
2022-08-14T05:57:24.784Z,78.71
2022-08-14T05:58:33.772Z,77.75
2022-08-14T05:59:36.502Z,77.65
2022-08-14T06:00:29.915Z,77.59
2022-08-14T06:01:24.838Z,76.82
2022-08-14T06:02:24.809Z,76.62
2022-08-14T06:03:24.825Z,75.65
2022-08-14T06:04:24.819Z,75.65
2022-08-14T06:05:24.840Z,75.70
2022-08-14T06:06:24.848Z,75.50
2022-08-14T06:07:24.849Z,75.40
2022-08-14T06:08:36.115Z,74.47
2022-08-14T06:09:24.867Z,73.69
2022-08-14T06:10:25.273Z,73.50
2022-08-14T06:11:30.683Z,73.02
2022-08-14T06:12:55.156Z,72.15
2022-08-14T06:13:31.621Z,72.57
2022-08-14T06:14:24.937Z,72.18
2022-08-14T06:15:29.382Z,71.50
2022-08-14T06:16:24.928Z,70.37
2022-08-14T06:17:26.101Z,69.79
2022-08-14T06:18:25.135Z,69.70
2022-08-14T06:19:24.963Z,69.12
2022-08-14T06:20:25.000Z,68.54
2022-08-14T06:21:25.004Z,68.44
2022-08-14T06:22:25.056Z,67.31
2022-08-14T06:23:25.073Z,67.21
2022-08-14T06:24:25.060Z,67.34
2022-08-14T06:25:25.163Z,67.31
2022-08-14T06:26:30.565Z,66.72
2022-08-14T06:27:25.072Z,66.37
2022-08-14T06:28:27.356Z,66.47
2022-08-14T06:29:25.096Z,65.89
2022-08-14T06:30:30.451Z,65.40
2022-08-14T06:31:25.136Z,65.11
2022-08-14T06:32:38.114Z,64.65
2022-08-14T06:33:30.330Z,64.56
2022-08-14T06:35:11.553Z,64.26
2022-08-14T06:35:25.165Z,63.88
2022-08-14T06:36:25.185Z,63.78
2022-08-14T06:37:25.198Z,63.39
2022-08-14T06:38:25.212Z,63.59
2022-08-14T06:39:36.954Z,63.23
2022-08-14T06:40:27.250Z,62.74
2022-08-14T06:41:58.145Z,62.55
2022-08-14T06:42:32.833Z,62.45
2022-08-14T06:43:30.171Z,62.07
2022-08-14T06:44:30.554Z,61.97
2022-08-14T06:45:26.285Z,62.45
2022-08-14T06:46:34.335Z,62.55
2022-08-14T06:47:25.327Z,62.16
2022-08-14T06:48:25.346Z,62.58
2022-08-14T06:49:25.358Z,61.71
2022-08-14T06:50:28.119Z,62.07
2022-08-14T06:51:25.398Z,62.35
2022-08-14T06:52:25.402Z,62.45
2022-08-14T06:53:27.511Z,62.45
2022-08-14T06:54:31.608Z,62.26
2022-08-14T06:55:27.912Z,62.35
2022-08-14T06:56:25.477Z,61.68
2022-08-14T06:57:25.480Z,62.55
2022-08-14T06:58:29.186Z,62.35
2022-08-14T06:59:25.497Z,63.04
2022-08-14T07:00:27.169Z,62.55
2022-08-14T07:01:27.564Z,62.55
2022-08-14T07:02:25.602Z,62.74
2022-08-14T07:03:25.713Z,62.74
2022-08-14T07:04:25.559Z,63.04
2022-08-14T07:05:25.568Z,63.07
2022-08-14T07:06:46.795Z,62.77
2022-08-14T07:07:25.590Z,62.38
2022-08-14T07:08:25.748Z,61.71
2022-08-14T07:09:25.623Z,62.00
2022-08-14T07:10:25.719Z,61.41
2022-08-14T07:11:25.672Z,61.22
2022-08-14T07:12:55.110Z,60.93
2022-08-14T07:13:25.706Z,60.83
2022-08-14T07:14:25.690Z,61.51
2022-08-14T07:15:25.698Z,61.80
2022-08-14T07:16:27.432Z,61.90
2022-08-14T07:17:25.724Z,62.38
2022-08-14T07:18:25.736Z,62.10
2022-08-14T07:19:25.760Z,61.41
2022-08-14T07:20:30.821Z,61.51
2022-08-14T07:21:25.788Z,60.93
2022-08-14T07:22:33.114Z,60.86
2022-08-14T07:23:25.858Z,61.05
2022-08-14T07:24:31.142Z,61.05
2022-08-14T07:25:30.410Z,60.38
2022-08-14T07:26:25.842Z,60.28
2022-08-14T07:27:25.866Z,60.50
2022-08-14T07:28:25.861Z,60.50
2022-08-14T07:29:28.680Z,59.92
2022-08-14T07:30:34.514Z,60.21
2022-08-14T07:31:25.904Z,59.53
2022-08-14T07:32:34.165Z,59.07
2022-08-14T07:33:29.856Z,57.90
2022-08-14T07:34:35.944Z,58.78
2022-08-14T07:35:25.965Z,58.97
2022-08-14T07:36:27.513Z,59.23
2022-08-14T07:37:26.000Z,58.97
2022-08-14T07:38:26.016Z,58.87
2022-08-14T07:39:27.701Z,58.97
2022-08-14T07:40:27.791Z,58.87
2022-08-14T07:41:33.977Z,58.97
2022-08-14T07:42:26.064Z,58.91
2022-08-14T07:43:26.093Z,58.51
2022-08-14T07:44:32.162Z,58.81
2022-08-14T07:45:26.118Z,58.03
2022-08-14T07:46:29.279Z,57.74
2022-08-14T07:47:26.139Z,57.54
2022-08-14T07:48:26.172Z,58.22
2022-08-14T07:49:26.209Z,58.03
2022-08-14T07:50:26.192Z,57.15
2022-08-14T07:51:26.229Z,57.64
2022-08-14T07:52:30.249Z,58.03
2022-08-14T07:53:26.223Z,58.03
2022-08-14T07:54:29.826Z,58.15
2022-08-14T07:55:26.269Z,57.64
2022-08-14T07:56:47.460Z,58.03
2022-08-14T07:57:26.306Z,57.74
2022-08-14T07:58:33.831Z,57.93
2022-08-14T07:59:41.490Z,58.13
2022-08-14T08:00:31.417Z,57.74
2022-08-14T08:01:26.352Z,58.06
2022-08-14T08:02:26.363Z,57.09
2022-08-14T08:03:26.416Z,58.13
2022-08-14T08:04:27.051Z,55.82
2022-08-14T08:05:26.404Z,56.01
2022-08-14T08:06:26.628Z,55.99
2022-08-14T08:07:29.664Z,55.82
2022-08-14T08:08:26.812Z,56.40
2022-08-14T08:09:31.876Z,56.01
2022-08-14T08:10:31.118Z,56.79
2022-08-14T08:11:26.517Z,56.89
2022-08-14T08:12:28.086Z,55.52
2022-08-14T08:13:28.684Z,54.26
2022-08-14T08:14:26.938Z,54.97
2022-08-14T08:15:26.563Z,54.85
2022-08-14T08:16:26.573Z,54.75
2022-08-14T08:17:26.586Z,55.26
2022-08-14T08:18:29.312Z,54.09
2022-08-14T08:19:26.610Z,53.89
2022-08-14T08:20:27.392Z,53.89
2022-08-14T08:21:27.140Z,54.09
2022-08-14T08:22:27.195Z,53.60
2022-08-14T08:23:30.201Z,53.83
2022-08-14T08:24:26.684Z,52.92
2022-08-14T08:25:26.718Z,52.85
2022-08-14T08:26:26.717Z,52.34
2022-08-14T08:27:26.755Z,52.73
2022-08-14T08:28:27.274Z,52.92
2022-08-14T08:29:28.676Z,52.92
2022-08-14T08:30:27.163Z,52.83
2022-08-14T08:31:32.604Z,53.11
2022-08-14T08:32:30.018Z,53.21
2022-08-14T08:33:27.138Z,52.92
2022-08-14T08:34:26.818Z,53.02
2022-08-14T08:35:46.312Z,53.24
2022-08-14T08:36:29.888Z,53.14
2022-08-14T08:37:30.716Z,53.44
2022-08-14T08:39:17.791Z,52.75
2022-08-14T08:39:30.964Z,53.34
2022-08-14T08:40:31.441Z,52.66
2022-08-14T08:41:26.922Z,53.53
2022-08-14T08:42:31.241Z,53.24
2022-08-14T08:43:26.919Z,52.95
2022-08-14T08:44:31.815Z,52.66
2022-08-14T08:45:27.809Z,52.07
2022-08-14T08:46:26.970Z,53.24
2022-08-14T08:47:26.970Z,52.66
2022-08-14T08:48:31.816Z,51.68
2022-08-14T08:49:26.990Z,52.17
2022-08-14T08:50:31.635Z,53.44
2022-08-14T08:51:30.882Z,52.95
2022-08-14T08:52:28.992Z,52.85
2022-08-14T08:53:27.057Z,52.36
2022-08-14T08:54:31.552Z,53.14
2022-08-14T08:55:27.065Z,52.92
2022-08-14T08:56:30.216Z,52.66
2022-08-14T08:57:27.070Z,52.75
2022-08-14T08:58:27.081Z,51.78
2022-08-14T08:59:31.550Z,51.39
2022-08-14T09:00:27.286Z,51.87
2022-08-14T09:01:27.195Z,51.17
2022-08-14T09:02:27.492Z,51.65
2022-08-14T09:03:27.605Z,51.97
2022-08-14T09:04:27.153Z,51.85
2022-08-14T09:05:27.213Z,52.14
2022-08-14T09:07:00.544Z,51.56
2022-08-14T09:07:27.283Z,51.56
2022-08-14T09:08:31.251Z,52.24
2022-08-14T09:09:33.084Z,52.24
2022-08-14T09:10:27.536Z,52.83
2022-08-14T09:11:27.215Z,52.92
2022-08-14T09:12:27.211Z,52.73
2022-08-14T09:13:27.244Z,51.46
2022-08-14T09:14:27.262Z,52.44
2022-08-14T09:15:27.243Z,52.92
2022-08-14T09:16:27.252Z,52.73
2022-08-14T09:17:27.307Z,53.11
2022-08-14T09:18:27.288Z,51.46
2022-08-14T09:19:27.309Z,52.63
2022-08-14T09:20:30.696Z,52.70
2022-08-14T09:21:31.122Z,52.70
2022-08-14T09:22:35.052Z,52.89
2022-08-14T09:23:34.664Z,52.60
2022-08-14T09:24:31.620Z,52.31
2022-08-14T09:26:01.421Z,52.50
2022-08-14T09:26:28.596Z,52.22
2022-08-14T09:27:27.358Z,52.70
2022-08-14T09:28:27.399Z,53.21
2022-08-14T09:29:28.652Z,53.11
2022-08-14T09:30:32.560Z,52.92
2022-08-14T09:31:27.393Z,52.80
2022-08-14T09:32:59.421Z,51.82
2022-08-14T09:33:27.433Z,52.89
2022-08-14T09:34:28.378Z,52.60
2022-08-14T09:35:27.704Z,52.40
2022-08-14T09:36:27.484Z,52.12
2022-08-14T09:37:27.507Z,52.12
2022-08-14T09:38:27.561Z,52.99
2022-08-14T09:39:27.566Z,52.80
2022-08-14T09:40:29.401Z,52.02
2022-08-14T09:41:27.515Z,51.53
2022-08-14T09:42:33.279Z,51.34
2022-08-14T09:43:27.519Z,51.21
2022-08-14T09:44:27.550Z,51.82
2022-08-14T09:45:30.397Z,51.53
2022-08-14T09:46:27.531Z,52.28
2022-08-14T09:47:27.540Z,52.77
2022-08-14T09:48:31.080Z,51.90
2022-08-14T09:49:27.575Z,51.43
2022-08-14T09:50:27.575Z,52.60
2022-08-14T09:51:32.585Z,52.58
2022-08-14T09:52:34.134Z,52.50
2022-08-14T09:54:13.088Z,53.06
2022-08-14T09:54:27.621Z,52.02
2022-08-14T09:55:27.798Z,51.21
2022-08-14T09:56:30.860Z,51.24
2022-08-14T09:57:28.916Z,51.73
2022-08-14T09:58:27.638Z,52.58
2022-08-14T09:59:28.380Z,52.09
2022-08-14T10:00:29.412Z,52.19
2022-08-14T10:01:27.662Z,52.09
2022-08-14T10:02:27.929Z,52.87
2022-08-14T10:03:28.720Z,53.55
2022-08-14T10:04:34.356Z,53.06
2022-08-14T10:05:27.680Z,52.77
2022-08-14T10:06:28.331Z,53.06
2022-08-14T10:07:27.707Z,52.97
2022-08-14T10:08:27.708Z,52.87
2022-08-14T10:09:27.716Z,52.09
2022-08-14T10:10:27.723Z,52.12
2022-08-14T10:11:34.803Z,52.09
2022-08-14T10:12:29.176Z,51.34
2022-08-14T10:13:27.746Z,52.19
2022-08-14T10:14:34.758Z,51.92
2022-08-14T10:15:29.971Z,51.61
2022-08-14T10:16:33.342Z,51.14
2022-08-14T10:17:27.785Z,50.26
2022-08-14T10:18:27.784Z,50.04
2022-08-14T10:19:27.788Z,49.46
2022-08-14T10:20:39.810Z,48.78
2022-08-14T10:21:27.810Z,49.88
2022-08-14T10:23:12.446Z,50.07
2022-08-14T10:23:30.112Z,49.19
2022-08-14T10:24:31.241Z,49.39
2022-08-14T10:25:27.843Z,49.00
2022-08-14T10:26:28.416Z,48.78
2022-08-14T10:27:28.074Z,48.22
2022-08-14T10:29:03.462Z,47.53
2022-08-14T10:29:27.884Z,47.52
2022-08-14T10:30:27.903Z,46.34
2022-08-14T10:31:27.895Z,46.27
2022-08-14T10:32:36.114Z,46.05
2022-08-14T10:33:27.908Z,46.17
2022-08-14T10:34:33.318Z,46.54
2022-08-14T10:35:31.064Z,46.95
2022-08-14T10:36:35.162Z,47.22
2022-08-14T10:37:28.117Z,47.22
2022-08-14T10:38:27.962Z,46.83
2022-08-14T10:39:27.993Z,47.22
2022-08-14T10:40:37.530Z,47.61
2022-08-14T10:41:31.926Z,47.42
2022-08-14T10:42:28.049Z,47.22
2022-08-14T10:43:31.791Z,47.32
2022-08-14T10:44:29.876Z,47.22
2022-08-14T10:45:28.004Z,47.32
2022-08-14T10:47:40.918Z,47.52
2022-08-14T10:47:41.288Z,47.03
2022-08-14T10:48:37.055Z,47.22
2022-08-14T10:49:28.063Z,47.61
2022-08-14T10:50:28.056Z,47.22
2022-08-14T10:51:30.319Z,47.61
2022-08-14T10:52:28.094Z,47.52
2022-08-14T10:53:28.070Z,47.61
2022-08-14T10:54:39.823Z,47.90
2022-08-14T10:55:28.149Z,47.71
2022-08-14T10:56:32.210Z,47.90
2022-08-14T10:57:28.133Z,47.80
2022-08-14T10:58:28.174Z,48.00
2022-08-14T10:59:30.960Z,48.49
2022-08-14T11:00:30.288Z,47.80
2022-08-14T11:01:28.185Z,48.10
2022-08-14T11:02:36.180Z,48.00
2022-08-14T11:03:55.242Z,48.29
2022-08-14T11:04:28.219Z,48.10
2022-08-14T11:05:28.543Z,47.61
2022-08-14T11:06:28.167Z,47.42
2022-08-14T11:07:28.179Z,47.61
2022-08-14T11:08:28.184Z,47.13
2022-08-14T11:09:31.629Z,47.22
2022-08-14T11:10:28.209Z,47.42
2022-08-14T11:11:35.850Z,47.80
2022-08-14T11:12:34.471Z,47.32
2022-08-14T11:13:29.939Z,47.61
2022-08-14T11:14:28.237Z,47.13
2022-08-14T11:15:28.245Z,46.93
2022-08-14T11:16:28.733Z,46.25
2022-08-14T11:17:28.261Z,46.64
2022-08-14T11:18:30.273Z,46.25
2022-08-14T11:19:28.311Z,46.34
2022-08-14T11:20:28.289Z,47.13
2022-08-14T11:21:30.151Z,46.73
2022-08-14T11:23:03.018Z,47.03
2022-08-14T11:23:28.334Z,46.93
2022-08-14T11:24:54.119Z,47.61
2022-08-14T11:25:41.327Z,47.42
2022-08-14T11:26:30.140Z,46.83
2022-08-14T11:27:33.367Z,47.52
2022-08-14T11:28:46.372Z,47.42
2022-08-14T11:29:28.353Z,47.32
2022-08-14T11:30:51.714Z,47.13
2022-08-14T11:31:35.622Z,46.83
2022-08-14T11:32:28.381Z,46.73
2022-08-14T11:33:28.381Z,47.13
2022-08-14T11:34:32.074Z,46.64
2022-08-14T11:35:44.043Z,46.15
2022-08-14T11:37:02.773Z,46.25
2022-08-14T11:37:36.948Z,46.34
2022-08-14T11:38:28.432Z,47.13
2022-08-14T11:39:34.609Z,47.03
2022-08-14T11:40:29.558Z,47.42
2022-08-14T11:41:28.460Z,46.44
2022-08-14T11:43:08.096Z,46.25
2022-08-14T11:43:29.472Z,45.28
2022-08-14T11:44:45.540Z,44.40
2022-08-14T11:45:29.891Z,44.30
2022-08-14T11:46:30.563Z,44.01
2022-08-14T11:47:34.746Z,44.20
2022-08-14T11:49:02.048Z,44.40
2022-08-14T11:49:34.121Z,44.40
2022-08-14T11:50:36.770Z,44.69
2022-08-14T11:51:30.715Z,44.49
2022-08-14T11:52:28.569Z,44.59
2022-08-14T11:53:28.542Z,44.30
2022-08-14T11:54:34.197Z,44.40
2022-08-14T11:55:28.562Z,43.81
2022-08-14T11:56:29.688Z,43.52
2022-08-14T11:57:28.563Z,43.81
2022-08-14T11:58:28.701Z,43.71
2022-08-14T11:59:32.814Z,43.81
2022-08-14T12:00:31.609Z,42.84
2022-08-14T12:01:28.594Z,42.76
2022-08-14T12:02:39.025Z,42.18
2022-08-14T12:03:45.939Z,42.25
2022-08-14T12:04:33.063Z,42.76
2022-08-14T12:05:28.627Z,43.04
2022-08-14T12:06:39.350Z,42.94
2022-08-14T12:07:28.840Z,42.94
2022-08-14T12:08:30.165Z,42.38
2022-08-14T12:09:28.653Z,42.35
2022-08-14T12:10:42.380Z,42.16
2022-08-14T12:11:28.679Z,42.28
2022-08-14T12:12:35.554Z,42.94
2022-08-14T12:13:28.764Z,42.84
2022-08-14T12:14:30.188Z,42.74
2022-08-14T12:15:28.710Z,42.84
2022-08-14T12:16:28.719Z,42.76
2022-08-14T12:17:28.728Z,43.33
2022-08-14T12:18:28.732Z,44.01
2022-08-14T12:19:28.742Z,43.71
2022-08-14T12:20:29.978Z,43.93
2022-08-14T12:21:32.204Z,43.71
2022-08-14T12:22:30.238Z,43.81
2022-08-14T12:23:28.781Z,43.81
2022-08-14T12:24:36.674Z,44.03
2022-08-14T12:25:28.942Z,43.91
2022-08-14T12:26:40.136Z,43.84
2022-08-14T12:27:28.793Z,43.93
2022-08-14T12:28:33.798Z,44.13
2022-08-14T12:29:28.868Z,43.74
2022-08-14T12:30:34.354Z,44.13
2022-08-14T12:31:28.825Z,43.91
2022-08-14T12:32:28.842Z,44.42
2022-08-14T12:33:30.835Z,44.13
2022-08-14T12:34:28.843Z,44.40
2022-08-14T12:35:28.866Z,44.69
2022-08-14T12:36:28.862Z,44.90
2022-08-14T12:37:28.917Z,44.42
2022-08-14T12:38:28.899Z,44.69
2022-08-14T12:39:28.932Z,44.23
2022-08-14T12:40:28.891Z,44.23
2022-08-14T12:41:34.416Z,44.52
2022-08-14T12:42:34.537Z,44.52
2022-08-14T12:43:28.926Z,44.40
2022-08-14T12:44:28.940Z,44.32
2022-08-14T12:45:28.942Z,44.79
2022-08-14T12:46:29.172Z,44.71
2022-08-14T12:47:28.950Z,44.42
2022-08-14T12:48:31.818Z,43.74
2022-08-14T12:49:28.974Z,43.91
2022-08-14T12:50:29.009Z,43.44
2022-08-14T12:51:30.767Z,43.35
2022-08-14T12:52:36.334Z,42.66